Time;durP1;ratioP1;P1;durP2;ratioP2;P2;SDS_P1;SDS_P2;PMS_P1;PMS_P2;Temp;Humidity;BMP_temperature;BMP_pressure;BME280_temperature;BME280_humidity;BME280_pressure;Samples;Min_cycle;Max_cycle;Signal;HPM_P1;HPM_P2
2021/04/29 00:01:20;;;;;;;;;30.75;29.00;;;;;;;;3724163;38;17853;-63
2021/04/29 00:03:46;;;;;;;;;33.75;29.00;;;;;;;;3724253;38;20919;-64
2021/04/29 00:06:13;;;;;;;;;32.50;31.00;;;;;;;;3724844;37;17849;-63
2021/04/29 00:08:39;;;;;;;;;38.00;31.50;;;;;;;;3724804;37;17831;-64
2021/04/29 00:11:05;;;;;;;;;28.00;27.50;;;;;;;;3724308;38;20903;-64
2021/04/29 00:13:31;;;;;;;;;31.00;26.50;;;;;;;;3724460;38;17837;-64
2021/04/29 00:15:57;;;;;;;;;30.25;29.00;;;;;;;;3724832;37;20803;-64
2021/04/29 00:18:23;;;;;;;;;32.00;30.50;;;;;;;;3724947;38;17825;-65
2021/04/29 00:20:55;;;;;;;;;35.75;33.25;;;;;;;;3724871;38;17837;-64
2021/04/29 00:23:22;;;;;;;;;33.50;31.75;;;;;;;;3724826;38;20986;-65
2021/04/29 00:25:47;;;;;;;;;36.75;34.00;;;;;;;;3724092;38;20977;-64
2021/04/29 00:28:15;;;;;;;;;34.25;33.25;;;;;;;;3724723;37;20989;-66
2021/04/29 00:30:45;;;;;;;;;34.25;32.75;;;;;;;;3724445;37;20970;-65
2021/04/29 00:33:11;;;;;;;;;41.00;34.50;;;;;;;;3724747;38;20983;-63
2021/04/29 00:35:38;;;;;;;;;29.50;29.50;;;;;;;;3724765;37;17813;-63
2021/04/29 00:38:04;;;;;;;;;33.25;31.25;;;;;;;;3724358;38;20858;-65
2021/04/29 00:40:30;;;;;;;;;28.00;26.00;;;;;;;;3724788;37;20866;-65
2021/04/29 00:42:56;;;;;;;;;31.25;30.50;;;;;;;;3724861;37;17794;-65
2021/04/29 00:45:22;;;;;;;;;28.50;27.25;;;;;;;;3724890;37;20860;-63
2021/04/29 00:47:50;;;;;;;;;27.75;25.00;;;;;;;;3724517;38;20808;-64
2021/04/29 00:50:18;;;;;;;;;31.50;29.50;;;;;;;;3724808;37;20837;-64
2021/04/29 00:52:43;;;;;;;;;31.75;31.00;;;;;;;;3724764;38;20834;-64
2021/04/29 00:55:10;;;;;;;;;27.50;26.50;;;;;;;;3724757;37;20823;-65
2021/04/29 00:57:36;;;;;;;;;35.00;33.75;;;;;;;;3724739;38;17779;-65
2021/04/29 01:00:02;;;;;;;;;35.75;32.00;;;;;;;;3724695;38;20774;-64
2021/04/29 01:02:28;;;;;;;;;30.00;28.25;;;;;;;;3724759;37;17788;-63
2021/04/29 01:05:01;;;;;;;;;28.50;28.00;;;;;;;;3724785;37;20816;-65
2021/04/29 01:07:30;;;;;;;;;31.75;31.50;;;;;;;;3725361;37;20852;-64
2021/04/29 01:10:09;;;;;;;;;31.75;29.75;;;;;;;;3725952;37;20907;-65
2021/04/29 01:12:43;;;;;;;;;27.75;27.00;;;;;;;;3724943;37;20819;-65
2021/04/29 01:15:10;;;;;;;;;30.00;29.25;;;;;;;;3724790;38;20802;-65
2021/04/29 01:17:40;;;;;;;;;28.25;28.25;;;;;;;;3724755;37;20809;-66
2021/04/29 01:20:15;;;;;;;;;28.50;27.50;;;;;;;;3724706;38;20822;-65
2021/04/29 01:22:46;;;;;;;;;32.25;32.00;;;;;;;;3724855;37;20803;-64
2021/04/29 01:25:29;;;;;;;;;;;;;;;;;;;;;
2021/04/29 01:27:57;;;;;;;;;32.75;30.50;;;;;;;;3724884;38;20900;-66
2021/04/29 01:30:23;;;;;;;;;32.75;31.50;;;;;;;;3724974;38;20815;-64
2021/04/29 01:32:49;;;;;;;;;31.75;31.25;;;;;;;;3724428;37;20800;-64
2021/04/29 01:35:16;;;;;;;;;30.50;29.50;;;;;;;;3724815;37;20789;-64
2021/04/29 01:37:41;;;;;;;;;33.75;33.00;;;;;;;;3724892;37;20912;-65
2021/04/29 01:40:10;;;;;;;;;32.75;32.00;;;;;;;;3724930;38;20800;-65
2021/04/29 01:42:36;;;;;;;;;38.75;34.25;;;;;;;;3724637;37;17662;-65
2021/04/29 01:45:14;;;;;;;;;32.50;31.50;;;;;;;;3725025;38;20875;-65
2021/04/29 01:47:40;;;;;;;;;36.75;34.50;;;;;;;;3724494;37;20868;-65
2021/04/29 01:50:10;;;;;;;;;28.50;28.25;;;;;;;;3724975;38;20852;-64
2021/04/29 01:52:36;;;;;;;;;31.75;30.50;;;;;;;;3724795;38;17724;-64
2021/04/29 01:55:03;;;;;;;;;27.50;27.50;;;;;;;;3724877;38;20863;-64
2021/04/29 01:57:29;;;;;;;;;31.00;30.00;;;;;;;;3724863;37;20783;-64
2021/04/29 01:59:54;;;;;;;;;34.00;33.00;;;;;;;;3724542;37;20856;-64
2021/04/29 02:02:22;;;;;;;;;30.25;28.75;;;;;;;;3724850;37;17687;-64
2021/04/29 02:04:49;;;;;;;;;31.75;29.25;;;;;;;;3724770;37;17687;-64
2021/04/29 02:07:15;;;;;;;;;32.25;31.75;;;;;;;;3724504;38;20864;-64
2021/04/29 02:09:44;;;;;;;;;32.50;31.75;;;;;;;;3724736;37;20832;-63
2021/04/29 02:12:10;;;;;;;;;30.75;28.50;;;;;;;;3724692;38;20841;-64
2021/04/29 02:14:39;;;;;;;;;33.25;31.75;;;;;;;;3724830;38;20851;-64
2021/04/29 02:17:09;;;;;;;;;34.75;32.75;;;;;;;;3724741;37;20830;-64
2021/04/29 02:19:39;;;;;;;;;34.75;32.00;;;;;;;;3724683;37;20821;-64
2021/04/29 02:22:06;;;;;;;;;34.00;30.75;;;;;;;;3724836;37;20829;-65
2021/04/29 02:24:33;;;;;;;;;32.50;31.75;;;;;;;;3724815;37;20847;-66
2021/04/29 02:27:00;;;;;;;;;33.00;31.75;;;;;;;;3724656;37;20739;-65
2021/04/29 02:29:26;;;;;;;;;30.00;30.00;;;;;;;;3724829;38;20796;-66
2021/04/29 02:31:53;;;;;;;;;32.00;30.00;;;;;;;;3724908;37;20836;-65
2021/04/29 02:34:20;;;;;;;;;32.25;29.50;;;;;;;;3724726;37;20830;-64
2021/04/29 02:36:46;;;;;;;;;28.75;28.00;;;;;;;;3724626;37;20730;-65
2021/04/29 02:39:12;;;;;;;;;28.75;27.50;;;;;;;;3724609;37;21699;-65
2021/04/29 02:41:39;;;;;;;;;32.25;31.00;;;;;;;;3724775;38;20733;-65
2021/04/29 02:44:06;;;;;;;;;28.00;27.75;;;;;;;;3724873;38;21711;-65
2021/04/29 02:46:32;;;;;;;;;31.50;29.50;;;;;;;;3724812;38;21790;-66
2021/04/29 02:48:59;;;;;;;;;36.25;32.75;;;;;;;;3724918;37;20715;-66
2021/04/29 02:51:24;;;;;;;;;31.25;30.50;;;;;;;;3724911;37;18660;-65
2021/04/29 02:53:50;;;;;;;;;41.25;35.75;;;;;;;;3724828;37;21779;-65
2021/04/29 02:56:16;;;;;;;;;56.25;46.00;;;;;;;;3724902;38;18615;-65
2021/04/29 02:58:46;;;;;;;;;49.25;42.25;;;;;;;;3724838;38;18597;-65
2021/04/29 03:01:12;;;;;;;;;47.25;40.00;;;;;;;;3724424;37;18626;-65
2021/04/29 03:03:38;;;;;;;;;49.25;40.50;;;;;;;;3724894;38;21763;-65
2021/04/29 03:06:08;;;;;;;;;49.00;39.75;;;;;;;;3725024;37;18604;-65
2021/04/29 03:08:35;;;;;;;;;51.00;40.75;;;;;;;;3724783;38;21755;-63
2021/04/29 03:11:01;;;;;;;;;50.75;41.75;;;;;;;;3724310;37;18671;-65
2021/04/29 03:13:27;;;;;;;;;50.00;42.50;;;;;;;;3724749;38;21738;-64
2021/04/29 03:15:53;;;;;;;;;53.75;43.00;;;;;;;;3724706;37;21742;-63
2021/04/29 03:18:20;;;;;;;;;52.00;44.00;;;;;;;;3724841;37;18569;-65
2021/04/29 03:20:46;;;;;;;;;57.25;45.50;;;;;;;;3724931;37;18575;-66
2021/04/29 03:23:11;;;;;;;;;56.75;47.75;;;;;;;;3724917;37;21764;-64
2021/04/29 03:25:37;;;;;;;;;66.00;53.50;;;;;;;;3724818;37;18589;-64
2021/04/29 03:28:03;;;;;;;;;71.75;57.25;;;;;;;;3725065;37;18577;-65
2021/04/29 03:30:31;;;;;;;;;80.00;68.25;;;;;;;;3725156;37;18567;-66
2021/04/29 03:32:57;;;;;;;;;108.75;100.75;;;;;;;;3724877;38;18577;-64
2021/04/29 03:35:23;;;;;;;;;116.50;98.50;;;;;;;;3724837;38;18575;-64
2021/04/29 03:37:48;;;;;;;;;75.75;63.75;;;;;;;;3724976;38;18554;-64
2021/04/29 03:40:16;;;;;;;;;107.50;94.00;;;;;;;;3724711;38;18560;-64
2021/04/29 03:42:41;;;;;;;;;119.00;96.00;;;;;;;;3725097;38;18581;-63
2021/04/29 03:45:07;;;;;;;;;92.75;76.75;;;;;;;;3724993;38;18567;-64
2021/04/29 03:47:33;;;;;;;;;65.75;51.25;;;;;;;;3727613;38;18552;-65
2021/04/29 03:49:59;;;;;;;;;79.00;63.75;;;;;;;;3725166;38;21877;-64
2021/04/29 03:52:25;;;;;;;;;82.50;77.50;;;;;;;;3725315;37;18539;-64
2021/04/29 03:54:51;;;;;;;;;69.00;53.50;;;;;;;;3725032;37;18550;-65
2021/04/29 03:57:17;;;;;;;;;81.50;64.25;;;;;;;;3725116;38;18544;-63
2021/04/29 03:59:43;;;;;;;;;76.50;66.25;;;;;;;;3725077;37;18539;-65
2021/04/29 04:02:10;;;;;;;;;93.50;79.50;;;;;;;;3724501;37;18515;-65
2021/04/29 04:04:43;;;;;;;;;118.00;100.50;;;;;;;;3725059;37;18535;-66
2021/04/29 04:07:09;;;;;;;;;86.75;75.25;;;;;;;;3724873;38;18525;-65
2021/04/29 04:09:35;;;;;;;;;96.75;85.50;;;;;;;;3725067;37;18744;-65
2021/04/29 04:12:00;;;;;;;;;76.75;65.50;;;;;;;;3725138;37;18494;-65
2021/04/29 04:14:26;;;;;;;;;71.75;58.25;;;;;;;;3725047;37;18535;-64
2021/04/29 04:16:52;;;;;;;;;76.75;65.50;;;;;;;;3724819;37;18516;-64
2021/04/29 04:19:17;;;;;;;;;74.00;59.75;;;;;;;;3724970;37;18527;-66
2021/04/29 04:21:43;;;;;;;;;60.25;50.00;;;;;;;;3724969;37;18487;-65
2021/04/29 04:24:09;;;;;;;;;59.50;48.75;;;;;;;;3724916;38;18533;-64
2021/04/29 04:26:35;;;;;;;;;55.25;45.25;;;;;;;;3724911;38;18503;-65
2021/04/29 04:29:01;;;;;;;;;52.50;44.25;;;;;;;;3725003;37;18491;-67
2021/04/29 04:31:27;;;;;;;;;51.50;42.50;;;;;;;;3724761;37;21637;-64
2021/04/29 04:33:52;;;;;;;;;50.75;43.00;;;;;;;;3724917;37;18494;-65
2021/04/29 04:36:18;;;;;;;;;39.25;35.00;;;;;;;;3724961;38;18788;-64
2021/04/29 04:38:44;;;;;;;;;44.00;36.75;;;;;;;;3724841;38;18490;-65
2021/04/29 04:41:10;;;;;;;;;41.25;35.75;;;;;;;;3725051;37;18472;-65
2021/04/29 04:43:36;;;;;;;;;45.75;38.75;;;;;;;;3724960;38;18483;-64
2021/04/29 04:46:03;;;;;;;;;48.50;41.00;;;;;;;;3724948;37;18463;-65
2021/04/29 04:48:35;;;;;;;;;44.00;37.00;;;;;;;;3725078;37;18465;-64
2021/04/29 04:51:00;;;;;;;;;39.25;35.25;;;;;;;;3725088;37;21637;-65
2021/04/29 04:53:26;;;;;;;;;43.75;37.00;;;;;;;;3725173;37;21619;-65
2021/04/29 04:55:52;;;;;;;;;47.00;39.00;;;;;;;;3724951;38;18449;-67
2021/04/29 04:58:19;;;;;;;;;50.25;42.25;;;;;;;;3724891;37;18466;-67
2021/04/29 05:00:45;;;;;;;;;36.50;32.50;;;;;;;;3725166;37;21627;-66
2021/04/29 05:03:12;;;;;;;;;37.75;34.25;;;;;;;;3724886;38;21552;-66
2021/04/29 05:05:42;;;;;;;;;33.50;31.00;;;;;;;;3724761;38;21532;-68
2021/04/29 05:08:10;;;;;;;;;39.50;34.75;;;;;;;;3724834;37;21539;-70
2021/04/29 05:10:36;;;;;;;;;38.25;34.75;;;;;;;;3725000;38;21523;-67
2021/04/29 05:13:03;;;;;;;;;34.75;31.50;;;;;;;;3725395;37;21527;-65
2021/04/29 05:15:29;;;;;;;;;29.50;28.25;;;;;;;;3724809;37;21516;-66
2021/04/29 05:17:55;;;;;;;;;33.50;28.50;;;;;;;;3724891;37;21527;-65
2021/04/29 05:20:21;;;;;;;;;36.25;33.50;;;;;;;;3724995;38;21508;-66
2021/04/29 05:22:47;;;;;;;;;32.75;31.50;;;;;;;;3724860;37;21614;-65
2021/04/29 05:25:13;;;;;;;;;39.25;32.25;;;;;;;;3724943;37;18444;-65
2021/04/29 05:27:40;;;;;;;;;39.25;32.75;;;;;;;;3724878;37;21491;-64
2021/04/29 05:30:06;;;;;;;;;31.75;29.50;;;;;;;;3725054;38;21512;-64
2021/04/29 05:32:32;;;;;;;;;30.50;28.75;;;;;;;;3725005;38;21516;-65
2021/04/29 05:34:59;;;;;;;;;34.25;32.25;;;;;;;;3724944;38;21468;-64
2021/04/29 05:37:25;;;;;;;;;29.00;29.00;;;;;;;;3724894;37;21497;-63
2021/04/29 05:39:52;;;;;;;;;25.25;23.00;;;;;;;;3724372;37;21485;-64
2021/04/29 05:42:18;;;;;;;;;29.00;28.25;;;;;;;;3724824;38;21490;-64
2021/04/29 05:44:44;;;;;;;;;29.75;29.50;;;;;;;;3725117;38;21470;-64
2021/04/29 05:47:10;;;;;;;;;26.75;26.75;;;;;;;;3724943;37;18390;-64
2021/04/29 05:49:35;;;;;;;;;32.50;31.25;;;;;;;;3725068;37;18410;-64
2021/04/29 05:52:02;;;;;;;;;29.00;29.00;;;;;;;;3725175;37;18399;-65
2021/04/29 05:54:28;;;;;;;;;29.00;26.25;;;;;;;;3725264;37;18376;-65
2021/04/29 05:56:54;;;;;;;;;28.50;28.00;;;;;;;;3724501;37;21249;-64
2021/04/29 05:59:20;;;;;;;;;26.50;22.25;;;;;;;;3724877;38;21472;-63
2021/04/29 06:01:52;;;;;;;;;21.75;21.25;;;;;;;;3724804;38;18364;-65
2021/04/29 06:04:17;;;;;;;;;20.00;20.00;;;;;;;;3724398;37;18353;-63
2021/04/29 06:06:45;;;;;;;;;25.00;23.25;;;;;;;;3723858;37;21425;-64
2021/04/29 06:09:11;;;;;;;;;23.25;20.75;;;;;;;;3724227;38;18347;-64
2021/04/29 06:11:36;;;;;;;;;22.50;21.25;;;;;;;;3723802;37;21424;-63
2021/04/29 06:14:02;;;;;;;;;20.50;19.75;;;;;;;;3724265;37;18356;-64
2021/04/29 06:16:28;;;;;;;;;21.25;18.50;;;;;;;;3724636;37;18467;-63
2021/04/29 06:18:54;;;;;;;;;18.25;15.50;;;;;;;;3725246;38;21436;-63
2021/04/29 06:21:20;;;;;;;;;15.75;15.75;;;;;;;;3725034;37;18368;-62
2021/04/29 06:23:47;;;;;;;;;21.25;20.25;;;;;;;;3725188;38;18337;-64
2021/04/29 06:26:14;;;;;;;;;23.25;22.00;;;;;;;;3726218;38;18366;-62
2021/04/29 06:28:40;;;;;;;;;20.50;19.00;;;;;;;;3725968;37;21410;-63
2021/04/29 06:31:05;;;;;;;;;16.75;16.75;;;;;;;;3724840;37;21437;-62
2021/04/29 06:33:32;;;;;;;;;15.00;15.00;;;;;;;;3724589;37;18337;-64
2021/04/29 06:35:58;;;;;;;;;16.75;16.75;;;;;;;;3724372;37;18325;-63
2021/04/29 06:38:25;;;;;;;;;19.25;18.50;;;;;;;;3724346;37;21442;-63
2021/04/29 06:40:51;;;;;;;;;20.25;19.00;;;;;;;;3724696;37;18330;-63
2021/04/29 06:43:17;;;;;;;;;18.25;17.00;;;;;;;;3725042;38;21402;-63
2021/04/29 06:45:42;;;;;;;;;19.25;18.00;;;;;;;;3724953;38;18329;-63
2021/04/29 06:48:10;;;;;;;;;27.75;26.50;;;;;;;;3724840;38;18305;-64
2021/04/29 06:50:36;;;;;;;;;20.75;19.75;;;;;;;;3724777;37;18331;-63
2021/04/29 06:53:12;;;;;;;;;17.50;17.50;;;;;;;;3724900;37;21373;-63
2021/04/29 06:55:38;;;;;;;;;19.25;16.75;;;;;;;;3724962;37;21412;-64
2021/04/29 06:58:04;;;;;;;;;16.50;15.50;;;;;;;;3724583;38;21399;-64
2021/04/29 07:00:29;;;;;;;;;15.75;14.50;;;;;;;;3725073;37;18309;-64
2021/04/29 07:02:56;;;;;;;;;13.50;13.25;;;;;;;;3725043;38;21444;-65
2021/04/29 07:05:22;;;;;;;;;17.50;17.25;;;;;;;;3725225;37;18297;-68
2021/04/29 07:07:51;;;;;;;;;16.25;16.25;;;;;;;;3725131;38;21346;-68
2021/04/29 07:10:17;;;;;;;;;17.00;17.00;;;;;;;;3725002;38;21407;-69
2021/04/29 07:12:43;;;;;;;;;16.25;15.25;;;;;;;;3724993;37;21418;-70
2021/04/29 07:15:09;;;;;;;;;16.50;16.50;;;;;;;;3725047;37;21431;-65
2021/04/29 07:17:35;;;;;;;;;19.50;17.75;;;;;;;;3725237;37;18280;-64
2021/04/29 07:20:01;;;;;;;;;13.00;11.75;;;;;;;;3725038;38;21412;-64
2021/04/29 07:22:27;;;;;;;;;16.50;15.50;;;;;;;;3724972;38;18256;-63
2021/04/29 07:24:53;;;;;;;;;18.25;16.00;;;;;;;;3725039;38;18261;-66
2021/04/29 07:27:18;;;;;;;;;22.25;20.50;;;;;;;;3725113;37;21425;-66
2021/04/29 07:29:44;;;;;;;;;22.25;18.50;;;;;;;;3725275;37;18266;-65
2021/04/29 07:32:10;;;;;;;;;18.25;17.25;;;;;;;;3725159;37;18237;-66
2021/04/29 07:34:36;;;;;;;;;38.75;35.25;;;;;;;;3725460;37;18268;-67
2021/04/29 07:37:03;;;;;;;;;15.75;15.25;;;;;;;;3725225;37;21409;-69
2021/04/29 07:39:29;;;;;;;;;18.00;17.50;;;;;;;;3726699;38;18236;-70
2021/04/29 07:41:55;;;;;;;;;13.25;13.25;;;;;;;;3725296;37;21300;-65
2021/04/29 07:44:21;;;;;;;;;17.00;15.50;;;;;;;;3724968;38;18256;-68
2021/04/29 07:46:46;;;;;;;;;15.00;15.00;;;;;;;;3725029;37;18246;-70
2021/04/29 07:49:12;;;;;;;;;16.75;15.25;;;;;;;;3725091;37;18223;-67
2021/04/29 07:51:38;;;;;;;;;19.00;17.75;;;;;;;;3725225;37;18209;-69
2021/04/29 07:54:04;;;;;;;;;16.00;16.00;;;;;;;;3724906;37;18222;-68
2021/04/29 07:56:31;;;;;;;;;22.75;22.50;;;;;;;;3724255;37;18231;-71
2021/04/29 07:58:57;;;;;;;;;18.75;18.50;;;;;;;;3724656;38;21293;-66
2021/04/29 08:01:22;;;;;;;;;18.25;17.50;;;;;;;;3725534;37;21325;-66
2021/04/29 08:03:49;;;;;;;;;17.50;17.50;;;;;;;;3725037;37;18228;-68
2021/04/29 08:06:14;;;;;;;;;17.25;15.25;;;;;;;;3724952;37;18209;-68
2021/04/29 08:08:40;;;;;;;;;17.25;16.25;;;;;;;;3725004;37;21320;-67
2021/04/29 08:11:12;;;;;;;;;20.00;19.00;;;;;;;;3725052;37;18193;-66
2021/04/29 08:13:39;;;;;;;;;18.00;17.75;;;;;;;;3725329;37;18216;-66
2021/04/29 08:16:05;;;;;;;;;16.75;15.00;;;;;;;;3725584;37;21295;-70
2021/04/29 08:18:31;;;;;;;;;17.25;17.25;;;;;;;;3725521;38;21292;-64
2021/04/29 08:20:56;;;;;;;;;15.25;14.75;;;;;;;;3725315;37;18185;-65
2021/04/29 08:23:22;;;;;;;;;17.25;16.75;;;;;;;;3725217;37;18175;-64
2021/04/29 08:25:49;;;;;;;;;16.25;16.25;;;;;;;;3725209;37;18196;-69
2021/04/29 08:28:16;;;;;;;;;14.50;13.75;;;;;;;;3725219;38;18189;-63
2021/04/29 08:30:43;;;;;;;;;16.25;15.00;;;;;;;;3724739;37;21251;-67
2021/04/29 08:33:08;;;;;;;;;13.75;13.75;;;;;;;;3724997;38;21293;-69
2021/04/29 08:35:34;;;;;;;;;14.50;12.75;;;;;;;;3724972;37;21305;-67
2021/04/29 08:38:00;;;;;;;;;13.00;13.00;;;;;;;;3724930;38;18172;-66
2021/04/29 08:40:29;;;;;;;;;15.25;13.50;;;;;;;;3724913;38;18141;-67
2021/04/29 08:43:00;;;;;;;;;14.25;13.50;;;;;;;;3726027;37;18146;-69
2021/04/29 08:45:29;;;;;;;;;14.75;14.75;;;;;;;;3736230;38;21231;-68
2021/04/29 08:47:58;;;;;;;;;17.25;17.25;;;;;;;;3737943;38;21266;-71
2021/04/29 08:50:26;;;;;;;;;16.75;15.25;;;;;;;;3738922;38;21255;-67
2021/04/29 08:52:54;;;;;;;;;13.50;13.50;;;;;;;;3737339;37;21252;-68
2021/04/29 08:55:22;;;;;;;;;15.25;14.75;;;;;;;;3737560;38;21245;-66
2021/04/29 08:57:49;;;;;;;;;13.00;13.00;;;;;;;;3737611;37;21258;-67
2021/04/29 09:00:17;;;;;;;;;15.25;15.25;;;;;;;;3737443;37;21227;-70
2021/04/29 09:02:43;;;;;;;;;14.00;13.00;;;;;;;;3730229;37;21229;-69
2021/04/29 09:05:30;;;;;;;;;14.75;13.25;;;;;;;;3726446;37;21234;-66
2021/04/29 09:08:02;;;;;;;;;16.25;13.50;;;;;;;;3733332;37;21290;-68
2021/04/29 09:10:30;;;;;;;;;13.50;13.00;;;;;;;;3730158;38;21198;-72
2021/04/29 09:12:56;;;;;;;;;14.00;11.75;;;;;;;;3725407;37;21194;-66
2021/04/29 09:15:26;;;;;;;;;10.75;10.75;;;;;;;;3725114;37;21164;-65
2021/04/29 09:18:02;;;;;;;;;12.00;11.00;;;;;;;;3725102;38;21263;-66
2021/04/29 09:20:29;;;;;;;;;11.00;11.00;;;;;;;;3724983;38;21197;-66
2021/04/29 09:22:58;;;;;;;;;11.25;11.25;;;;;;;;3724790;37;21260;-65
2021/04/29 09:25:24;;;;;;;;;12.75;12.25;;;;;;;;3724462;37;21195;-66
2021/04/29 09:27:54;;;;;;;;;12.50;12.25;;;;;;;;3724719;37;21182;-67
2021/04/29 09:30:27;;;;;;;;;12.00;12.00;;;;;;;;3725371;38;18090;-64
2021/04/29 09:32:58;;;;;;;;;16.00;14.50;;;;;;;;3724528;37;21198;-66
2021/04/29 09:35:25;;;;;;;;;11.50;10.50;;;;;;;;3725124;37;21184;-67
2021/04/29 09:37:51;;;;;;;;;13.25;13.25;;;;;;;;3725369;38;21165;-68
2021/04/29 09:40:38;;;;;;;;;16.50;16.50;;;;;;;;3724852;38;21153;-62
2021/04/29 09:43:06;;;;;;;;;15.00;14.25;;;;;;;;3724984;38;21233;-64
2021/04/29 09:45:33;;;;;;;;;13.25;12.75;;;;;;;;3725211;37;21149;-67
2021/04/29 09:48:06;;;;;;;;;13.25;13.00;;;;;;;;3725033;37;21418;-67
2021/04/29 09:50:33;;;;;;;;;16.25;14.00;;;;;;;;3725140;38;21173;-65
2021/04/29 09:53:00;;;;;;;;;14.75;14.75;;;;;;;;3724935;37;21166;-66
2021/04/29 09:55:28;;;;;;;;;13.25;13.00;;;;;;;;3725013;37;21127;-67
2021/04/29 09:58:00;;;;;;;;;18.00;17.25;;;;;;;;3724932;38;21196;-70
2021/04/29 10:00:26;;;;;;;;;20.50;18.75;;;;;;;;3725023;38;21144;-66
2021/04/29 10:02:51;;;;;;;;;16.75;15.50;;;;;;;;3724928;37;21145;-66
2021/04/29 10:05:17;;;;;;;;;18.00;18.00;;;;;;;;3724874;37;18037;-65
2021/04/29 10:07:43;;;;;;;;;16.50;16.00;;;;;;;;3725059;38;18067;-65
2021/04/29 10:10:09;;;;;;;;;15.25;14.00;;;;;;;;3724879;38;21223;-67
2021/04/29 10:12:36;;;;;;;;;14.25;14.25;;;;;;;;3725069;37;18341;-65
2021/04/29 10:15:02;;;;;;;;;17.25;17.00;;;;;;;;3725069;37;21134;-64
2021/04/29 10:17:27;;;;;;;;;16.25;16.25;;;;;;;;3725112;38;21163;-63
2021/04/29 10:19:54;;;;;;;;;19.50;19.25;;;;;;;;3725076;37;18043;-64
2021/04/29 10:22:22;;;;;;;;;17.50;15.25;;;;;;;;3724983;38;18047;-66
2021/04/29 10:24:48;;;;;;;;;18.25;18.00;;;;;;;;3725021;37;21151;-65
2021/04/29 10:27:18;;;;;;;;;18.00;17.00;;;;;;;;3724900;38;21098;-64
2021/04/29 10:29:44;;;;;;;;;15.75;15.75;;;;;;;;3725141;38;18037;-68
2021/04/29 10:32:18;;;;;;;;;15.75;15.25;;;;;;;;3726895;37;21077;-67
2021/04/29 10:34:45;;;;;;;;;15.50;15.50;;;;;;;;3727246;38;21113;-65
2021/04/29 10:37:29;;;;;;;;;17.25;16.00;;;;;;;;3724969;37;21131;-66
2021/04/29 10:39:59;;;;;;;;;13.75;13.75;;;;;;;;3725046;38;21125;-66
2021/04/29 10:42:27;;;;;;;;;18.25;18.25;;;;;;;;3725085;38;21098;-67
2021/04/29 10:44:57;;;;;;;;;17.00;17.00;;;;;;;;3725030;37;21067;-66
2021/04/29 10:47:24;;;;;;;;;16.25;16.25;;;;;;;;3725016;38;21100;-73
2021/04/29 10:49:51;;;;;;;;;16.75;16.75;;;;;;;;3725079;38;21112;-65
2021/04/29 10:52:17;;;;;;;;;16.25;15.00;;;;;;;;3724859;38;21089;-67
2021/04/29 10:54:50;;;;;;;;;11.75;11.00;;;;;;;;3724482;38;21126;-66
2021/04/29 10:57:18;;;;;;;;;17.75;16.25;;;;;;;;3724999;37;21072;-67
2021/04/29 10:59:52;;;;;;;;;16.25;16.00;;;;;;;;3725032;37;21132;-72
2021/04/29 11:02:34;;;;;;;;;11.00;11.00;;;;;;;;3724846;38;21107;-67
2021/04/29 11:05:00;;;;;;;;;16.75;15.75;;;;;;;;3725184;37;21075;-66
2021/04/29 11:07:27;;;;;;;;;14.25;13.00;;;;;;;;3725286;38;21122;-73
2021/04/29 11:10:19;;;;;;;;;22.75;22.75;;;;;;;;3725288;37;21038;-69
2021/04/29 11:12:51;;;;;;;;;13.25;13.25;;;;;;;;3725019;37;21023;-67
2021/04/29 11:15:37;;;;;;;;;13.50;13.50;;;;;;;;3724859;38;21032;-67
2021/04/29 11:18:11;;;;;;;;;16.50;16.00;;;;;;;;3725120;37;21055;-68
2021/04/29 11:21:02;;;;;;;;;13.00;13.00;;;;;;;;3724531;37;21036;-68
2021/04/29 11:23:38;;;;;;;;;16.50;15.75;;;;;;;;3725015;38;21039;-68
2021/04/29 11:26:05;;;;;;;;;12.25;12.00;;;;;;;;3724969;37;21069;-68
2021/04/29 11:28:30;;;;;;;;;10.00;10.00;;;;;;;;3725011;38;21038;-69
2021/04/29 11:30:56;;;;;;;;;17.50;16.50;;;;;;;;3724791;37;20998;-70
2021/04/29 11:33:30;;;;;;;;;13.00;12.00;;;;;;;;3725298;38;17942;-67
2021/04/29 11:35:55;;;;;;;;;11.00;11.00;;;;;;;;3725214;38;17909;-68
2021/04/29 11:38:23;;;;;;;;;13.50;13.50;;;;;;;;3725073;38;20986;-67
2021/04/29 11:40:49;;;;;;;;;11.75;11.75;;;;;;;;3725129;37;17924;-67
2021/04/29 11:43:15;;;;;;;;;11.25;10.25;;;;;;;;3727884;38;20992;-69
2021/04/29 11:45:50;;;;;;;;;12.25;11.25;;;;;;;;3730959;38;20959;-69
2021/04/29 11:48:16;;;;;;;;;12.25;12.25;;;;;;;;3731057;38;17938;-68
2021/04/29 11:50:52;;;;;;;;;11.25;10.50;;;;;;;;3726025;37;20988;-67
2021/04/29 11:53:38;;;;;;;;;14.75;13.50;;;;;;;;3725403;37;21046;-67
2021/04/29 11:56:05;;;;;;;;;12.00;12.00;;;;;;;;3725239;38;21008;-67
2021/04/29 11:58:31;;;;;;;;;11.75;11.75;;;;;;;;3725197;37;21121;-70
2021/04/29 12:00:57;;;;;;;;;10.00;9.00;;;;;;;;3725228;38;20981;-68
2021/04/29 12:03:25;;;;;;;;;15.75;15.50;;;;;;;;3725411;37;20920;-68
2021/04/29 12:05:53;;;;;;;;;9.50;9.50;;;;;;;;3725212;37;21055;-67
2021/04/29 12:08:21;;;;;;;;;12.75;11.25;;;;;;;;3727433;37;20620;-67
2021/04/29 12:10:56;;;;;;;;;11.00;10.00;;;;;;;;3725501;37;20935;-67
2021/04/29 12:13:30;;;;;;;;;10.25;10.25;;;;;;;;3725568;38;20936;-68
2021/04/29 12:16:00;;;;;;;;;10.50;9.75;;;;;;;;3725725;38;20960;-67
2021/04/29 12:18:26;;;;;;;;;10.00;9.75;;;;;;;;3725797;37;20933;-70
2021/04/29 12:20:52;;;;;;;;;12.00;12.00;;;;;;;;3725266;37;20953;-67
2021/04/29 12:23:18;;;;;;;;;12.00;11.25;;;;;;;;3725570;37;20928;-69
2021/04/29 12:25:55;;;;;;;;;12.50;12.50;;;;;;;;3725899;37;17880;-66
2021/04/29 12:28:20;;;;;;;;;11.00;11.00;;;;;;;;3725611;37;21008;-68
2021/04/29 12:30:46;;;;;;;;;8.00;8.00;;;;;;;;3725371;38;21097;-67
2021/04/29 12:33:21;;;;;;;;;11.00;10.50;;;;;;;;3725241;37;17845;-68
2021/04/29 12:35:47;;;;;;;;;9.00;9.00;;;;;;;;3725603;37;17847;-69
2021/04/29 12:38:14;;;;;;;;;11.50;11.25;;;;;;;;3725191;37;20857;-67
2021/04/29 12:40:43;;;;;;;;;9.75;9.75;;;;;;;;3725236;38;20898;-67
2021/04/29 12:43:23;;;;;;;;;10.00;9.25;;;;;;;;3725183;37;20898;-67
2021/04/29 12:45:50;;;;;;;;;8.75;8.75;;;;;;;;3725384;38;20994;-67
2021/04/29 12:48:23;;;;;;;;;9.50;9.50;;;;;;;;3725392;38;20848;-67
2021/04/29 12:51:06;;;;;;;;;11.25;10.25;;;;;;;;3725465;38;20884;-67
2021/04/29 12:53:32;;;;;;;;;10.25;10.25;;;;;;;;3725479;37;21077;-67
2021/04/29 12:55:57;;;;;;;;;9.00;9.00;;;;;;;;3725446;38;21056;-66
2021/04/29 12:58:27;;;;;;;;;10.25;9.50;;;;;;;;3725421;38;17814;-65
2021/04/29 13:00:53;;;;;;;;;7.50;7.25;;;;;;;;3725256;37;17834;-66
2021/04/29 13:03:19;;;;;;;;;11.00;11.00;;;;;;;;3725131;38;20812;-66
2021/04/29 13:05:48;;;;;;;;;12.25;11.75;;;;;;;;3725011;37;20879;-68
2021/04/29 13:08:14;;;;;;;;;11.50;11.00;;;;;;;;3724996;37;20947;-65
2021/04/29 13:10:40;;;;;;;;;13.75;13.75;;;;;;;;3724737;38;21087;-67
2021/04/29 13:13:06;;;;;;;;;7.75;7.00;;;;;;;;3725349;37;17817;-67
2021/04/29 13:15:48;;;;;;;;;12.00;12.00;;;;;;;;3724817;37;20943;-68
2021/04/29 13:18:23;;;;;;;;;9.25;9.25;;;;;;;;3725066;37;17796;-66
2021/04/29 13:20:48;;;;;;;;;15.00;14.50;;;;;;;;3725004;37;20839;-67
2021/04/29 13:23:14;;;;;;;;;14.75;13.25;;;;;;;;3725211;37;20910;-69
2021/04/29 13:25:41;;;;;;;;;9.50;9.50;;;;;;;;3725094;37;17783;-69
2021/04/29 13:28:13;;;;;;;;;11.50;10.75;;;;;;;;3724964;38;17792;-67
2021/04/29 13:30:39;;;;;;;;;11.25;11.25;;;;;;;;3725043;38;20924;-67
2021/04/29 13:33:07;;;;;;;;;13.50;12.50;;;;;;;;3724970;37;20920;-69
2021/04/29 13:35:32;;;;;;;;;15.00;15.00;;;;;;;;3724885;38;17764;-68
2021/04/29 13:37:58;;;;;;;;;9.50;9.00;;;;;;;;3725036;37;20860;-67
2021/04/29 13:40:26;;;;;;;;;8.75;8.00;;;;;;;;3728461;37;17746;-70
2021/04/29 13:42:52;;;;;;;;;10.50;10.00;;;;;;;;3728483;38;17762;-70
2021/04/29 13:45:18;;;;;;;;;13.50;13.25;;;;;;;;3725287;38;21019;-71
2021/04/29 13:47:44;;;;;;;;;14.25;14.25;;;;;;;;3725163;37;17782;-66
2021/04/29 13:50:11;;;;;;;;;13.00;12.00;;;;;;;;3724929;37;20866;-67
2021/04/29 13:52:37;;;;;;;;;11.25;11.25;;;;;;;;3724923;37;20882;-68
2021/04/29 13:55:06;;;;;;;;;13.00;13.00;;;;;;;;3725084;37;20991;-67
2021/04/29 13:57:32;;;;;;;;;10.25;10.00;;;;;;;;3725152;37;20904;-69
2021/04/29 13:59:58;;;;;;;;;10.75;10.50;;;;;;;;3725021;37;20733;-69
2021/04/29 14:02:25;;;;;;;;;9.00;9.00;;;;;;;;3724948;37;20731;-68
2021/04/29 14:04:51;;;;;;;;;11.00;11.00;;;;;;;;3725151;38;20700;-67
2021/04/29 14:07:17;;;;;;;;;10.75;10.25;;;;;;;;3725093;37;20831;-67
2021/04/29 14:09:42;;;;;;;;;12.00;11.00;;;;;;;;3725216;37;17713;-69
2021/04/29 14:12:12;;;;;;;;;10.25;10.25;;;;;;;;3725333;38;17724;-69
2021/04/29 14:14:38;;;;;;;;;8.00;7.75;;;;;;;;3725270;37;17708;-68
2021/04/29 14:17:03;;;;;;;;;10.50;10.00;;;;;;;;3725096;37;20712;-67
2021/04/29 14:19:30;;;;;;;;;9.00;9.00;;;;;;;;3724620;37;17695;-67
2021/04/29 14:21:59;;;;;;;;;7.50;7.50;;;;;;;;3725565;38;20748;-69